Time;durP1;ratioP1;P1;durP2;ratioP2;P2;SDS_P1;SDS_P2;PMS_P1;PMS_P2;Temp;Humidity;BMP_temperature;BMP_pressure;BME280_temperature;BME280_humidity;BME280_pressure;Samples;Min_cycle;Max_cycle;Signal;HPM_P1;HPM_P2
2021/07/14 00:00:10;;;;;;;33.40;23.33;;;;;;;;;;4966077;28;20442;-72
2021/07/14 00:02:35;;;;;;;42.08;23.85;;;;;;;;;;4968812;28;20263;-72
2021/07/14 00:05:00;;;;;;;33.28;22.45;;;;;;;;;;4968000;28;20180;-72
2021/07/14 00:07:25;;;;;;;39.55;24.73;;;;;;;;;;4960012;28;20239;-72
2021/07/14 00:09:50;;;;;;;33.43;24.07;;;;;;;;;;4968758;28;20535;-72
2021/07/14 00:12:17;;;;;;;39.30;23.73;;;;;;;;;;4973323;28;20414;-74
2021/07/14 00:22:26;;;;;;;40.42;25.58;;;;;;;;;;4975561;28;20695;-72
2021/07/14 00:24:54;;;;;;;39.83;25.02;;;;;;;;;;4954514;28;20197;-72
2021/07/14 00:27:20;;;;;;;39.45;24.08;;;;;;;;;;4971654;28;20215;-72
2021/07/14 00:29:50;;;;;;;40.70;25.63;;;;;;;;;;4966480;28;20176;-72
2021/07/14 00:32:15;;;;;;;40.95;24.55;;;;;;;;;;4968385;28;20565;-72
2021/07/14 00:34:41;;;;;;;38.50;25.35;;;;;;;;;;4968810;28;20179;-73
2021/07/14 00:37:06;;;;;;;42.05;24.58;;;;;;;;;;4975606;28;20661;-72
2021/07/14 00:39:31;;;;;;;37.73;23.50;;;;;;;;;;4973329;28;20712;-73
2021/07/14 00:41:56;;;;;;;40.88;23.85;;;;;;;;;;4971285;28;20430;-73
2021/07/14 00:44:21;;;;;;;40.90;25.63;;;;;;;;;;4977168;28;20203;-73
2021/07/14 00:46:47;;;;;;;33.35;23.13;;;;;;;;;;4961656;28;20449;-72
2021/07/14 00:49:13;;;;;;;41.67;22.55;;;;;;;;;;4973399;28;20713;-72
2021/07/14 00:51:39;;;;;;;49.05;24.83;;;;;;;;;;4973051;28;20200;-72
2021/07/14 00:54:04;;;;;;;33.53;21.63;;;;;;;;;;4975628;28;20238;-72
2021/07/14 00:56:29;;;;;;;37.67;22.67;;;;;;;;;;4970463;28;20608;-72
2021/07/14 00:58:56;;;;;;;31.25;20.88;;;;;;;;;;4970164;28;20821;-73
2021/07/14 01:01:22;;;;;;;33.63;21.98;;;;;;;;;;4970763;28;20176;-72
2021/07/14 01:03:58;;;;;;;38.80;20.58;;;;;;;;;;4976511;28;20611;-73
2021/07/14 01:06:36;;;;;;;36.00;21.50;;;;;;;;;;4971177;28;20231;-73
2021/07/14 01:09:03;;;;;;;32.65;22.02;;;;;;;;;;4970333;28;20208;-73
2021/07/14 01:11:30;;;;;;;39.63;20.38;;;;;;;;;;4972582;28;20622;-73
2021/07/14 01:13:58;;;;;;;34.03;21.58;;;;;;;;;;4970228;28;20659;-73
2021/07/14 01:16:25;;;;;;;34.28;20.23;;;;;;;;;;4968673;28;20260;-73
2021/07/14 01:18:54;;;;;;;33.33;20.33;;;;;;;;;;4970138;28;20188;-73
2021/07/14 01:21:28;;;;;;;34.63;22.05;;;;;;;;;;4972419;28;20184;-73
2021/07/14 01:24:16;;;;;;;35.63;19.65;;;;;;;;;;4969244;28;20278;-73
2021/07/14 01:26:50;;;;;;;31.40;20.02;;;;;;;;;;4980214;28;20256;-73
2021/07/14 01:29:17;;;;;;;35.25;20.77;;;;;;;;;;4957942;28;20192;-73
2021/07/14 01:31:43;;;;;;;28.60;19.25;;;;;;;;;;4975075;28;20266;-73
2021/07/14 01:34:10;;;;;;;30.05;19.65;;;;;;;;;;4974261;28;20172;-73
2021/07/14 01:36:36;;;;;;;35.25;20.75;;;;;;;;;;4968149;28;20211;-73
2021/07/14 01:39:03;;;;;;;33.67;19.83;;;;;;;;;;4971692;28;20562;-73
2021/07/14 01:41:33;;;;;;;31.30;20.25;;;;;;;;;;4971479;28;20231;-73
2021/07/14 01:43:59;;;;;;;34.65;19.85;;;;;;;;;;4972479;28;20205;-73
2021/07/14 01:46:25;;;;;;;35.33;20.08;;;;;;;;;;4968270;28;20204;-73
2021/07/14 01:48:51;;;;;;;27.65;19.08;;;;;;;;;;4967795;28;20200;-73
2021/07/14 01:51:17;;;;;;;27.65;18.77;;;;;;;;;;4971393;28;20184;-73
2021/07/14 01:53:43;;;;;;;34.88;19.02;;;;;;;;;;4973198;28;20199;-73
2021/07/14 01:56:10;;;;;;;29.02;18.35;;;;;;;;;;4973575;28;20200;-73
2021/07/14 01:58:36;;;;;;;27.25;19.02;;;;;;;;;;4971818;28;20226;-73
2021/07/14 02:01:02;;;;;;;30.48;18.20;;;;;;;;;;4968180;28;20259;-73
2021/07/14 02:03:41;;;;;;;26.45;17.67;;;;;;;;;;4981601;28;20327;-73
2021/07/14 02:06:07;;;;;;;28.00;17.95;;;;;;;;;;4975456;28;20236;-73
2021/07/14 02:08:34;;;;;;;27.70;17.92;;;;;;;;;;4964616;28;20209;-73
2021/07/14 02:11:00;;;;;;;35.92;19.33;;;;;;;;;;4971223;28;20563;-73
2021/07/14 02:13:26;;;;;;;34.47;19.88;;;;;;;;;;4968604;28;20172;-73
2021/07/14 02:15:53;;;;;;;32.92;19.30;;;;;;;;;;4969158;28;20632;-73
2021/07/14 02:18:21;;;;;;;30.02;19.17;;;;;;;;;;4968480;28;20286;-72
2021/07/14 02:20:47;;;;;;;29.58;19.95;;;;;;;;;;4969898;28;20188;-73
2021/07/14 02:23:12;;;;;;;36.33;20.58;;;;;;;;;;4973431;28;20684;-73
2021/07/14 02:25:37;;;;;;;35.47;20.23;;;;;;;;;;4970479;28;20203;-73
2021/07/14 02:28:03;;;;;;;34.40;21.50;;;;;;;;;;4975176;28;20536;-73
2021/07/14 02:30:28;;;;;;;31.70;20.13;;;;;;;;;;4976377;28;20322;-73
2021/07/14 02:32:55;;;;;;;31.85;20.63;;;;;;;;;;4971484;28;20192;-73
2021/07/14 02:35:21;;;;;;;35.45;19.70;;;;;;;;;;4969817;28;20204;-73
2021/07/14 02:37:50;;;;;;;30.08;19.60;;;;;;;;;;4965443;28;20655;-73
2021/07/14 02:40:17;;;;;;;35.13;20.65;;;;;;;;;;4973534;28;20658;-73
2021/07/14 02:42:43;;;;;;;30.40;19.73;;;;;;;;;;4973235;28;20261;-74
2021/07/14 02:45:08;;;;;;;31.70;20.10;;;;;;;;;;4966351;28;20703;-73
2021/07/14 02:47:36;;;;;;;30.83;18.30;;;;;;;;;;4968200;28;20208;-74
2021/07/14 02:50:04;;;;;;;35.13;20.23;;;;;;;;;;4970173;28;20642;-73
2021/07/14 02:52:30;;;;;;;32.55;21.80;;;;;;;;;;4972917;28;20218;-73
2021/07/14 02:54:55;;;;;;;35.00;21.77;;;;;;;;;;4967643;28;20184;-73
2021/07/14 02:57:21;;;;;;;43.03;23.45;;;;;;;;;;4975756;28;20180;-73
2021/07/14 02:59:51;;;;;;;41.95;24.48;;;;;;;;;;4966153;28;20295;-73
2021/07/14 03:02:17;;;;;;;47.90;25.15;;;;;;;;;;4973674;28;20183;-73
2021/07/14 03:04:44;;;;;;;38.13;24.85;;;;;;;;;;4966593;28;20186;-73
2021/07/14 03:07:10;;;;;;;41.63;25.13;;;;;;;;;;4968764;28;20225;-73
2021/07/14 03:09:45;;;;;;;40.88;23.63;;;;;;;;;;4967575;28;20184;-73
2021/07/14 03:12:12;;;;;;;38.70;24.10;;;;;;;;;;4967482;28;20658;-73
2021/07/14 03:14:40;;;;;;;41.00;22.63;;;;;;;;;;4965783;28;20228;-73
2021/07/14 03:17:06;;;;;;;31.35;21.95;;;;;;;;;;4967202;28;20307;-72
2021/07/14 03:19:33;;;;;;;32.38;22.38;;;;;;;;;;4969115;28;20180;-73
2021/07/14 03:21:58;;;;;;;33.58;20.58;;;;;;;;;;4960686;28;20255;-73
2021/07/14 03:24:24;;;;;;;32.00;21.38;;;;;;;;;;4968942;28;20259;-73
2021/07/14 03:26:49;;;;;;;38.55;20.80;;;;;;;;;;4969976;28;20200;-73
2021/07/14 03:29:16;;;;;;;43.17;23.88;;;;;;;;;;4966470;28;20223;-73
2021/07/14 03:31:41;;;;;;;35.95;22.40;;;;;;;;;;4970867;28;20833;-73
2021/07/14 03:34:06;;;;;;;37.15;22.80;;;;;;;;;;4969945;28;20327;-73
2021/07/14 03:36:31;;;;;;;36.28;22.38;;;;;;;;;;4967008;28;20234;-73
2021/07/14 03:38:57;;;;;;;32.92;20.00;;;;;;;;;;4969863;28;20180;-73
2021/07/14 03:41:22;;;;;;;26.50;18.27;;;;;;;;;;4971786;28;20646;-72
2021/07/14 03:43:47;;;;;;;25.13;18.13;;;;;;;;;;4967618;28;20185;-73
2021/07/14 03:46:13;;;;;;;28.75;17.05;;;;;;;;;;4967796;28;20208;-72
2021/07/14 03:48:39;;;;;;;24.08;17.77;;;;;;;;;;4974613;28;20262;-73
2021/07/14 03:51:05;;;;;;;23.08;18.25;;;;;;;;;;4970359;28;20177;-73
2021/07/14 03:53:30;;;;;;;24.45;18.00;;;;;;;;;;4975586;28;20255;-73
2021/07/14 03:55:55;;;;;;;27.83;17.83;;;;;;;;;;4969319;28;20589;-73
2021/07/14 03:58:21;;;;;;;24.02;16.98;;;;;;;;;;4973339;28;20216;-72
2021/07/14 04:00:50;;;;;;;23.45;17.30;;;;;;;;;;4967217;28;20188;-73
2021/07/14 04:03:23;;;;;;;26.30;17.52;;;;;;;;;;4972949;28;20190;-73
2021/07/14 04:05:50;;;;;;;22.02;15.13;;;;;;;;;;4967281;28;20207;-73
2021/07/14 04:08:17;;;;;;;19.48;14.80;;;;;;;;;;4973724;28;20266;-73
2021/07/14 04:10:42;;;;;;;23.40;14.75;;;;;;;;;;4964607;28;20160;-73
2021/07/14 04:13:07;;;;;;;21.63;14.53;;;;;;;;;;4969746;28;20186;-72
2021/07/14 04:15:33;;;;;;;21.57;14.07;;;;;;;;;;4964590;28;20454;-72
2021/07/14 04:17:58;;;;;;;18.83;14.30;;;;;;;;;;4964358;28;20457;-73
2021/07/14 04:20:23;;;;;;;20.70;15.48;;;;;;;;;;4965183;28;20193;-73
2021/07/14 04:22:48;;;;;;;18.67;13.77;;;;;;;;;;4972012;28;20185;-73
2021/07/14 04:25:15;;;;;;;18.42;13.85;;;;;;;;;;4965579;28;20204;-73
2021/07/14 04:27:40;;;;;;;16.00;14.00;;;;;;;;;;4969992;28;20587;-73
2021/07/14 04:30:06;;;;;;;18.48;13.88;;;;;;;;;;4967336;28;20183;-73
2021/07/14 04:32:31;;;;;;;21.17;15.20;;;;;;;;;;4973106;28;20207;-73
2021/07/14 04:34:57;;;;;;;18.97;13.87;;;;;;;;;;4968429;28;20185;-73
2021/07/14 04:37:22;;;;;;;18.10;13.82;;;;;;;;;;4968272;28;20473;-73
2021/07/14 04:39:47;;;;;;;14.27;12.30;;;;;;;;;;4969692;28;20259;-73
2021/07/14 04:42:12;;;;;;;15.82;11.10;;;;;;;;;;4961638;28;20434;-73
2021/07/14 04:44:48;;;;;;;16.63;13.17;;;;;;;;;;4968600;28;20599;-73
2021/07/14 04:47:13;;;;;;;17.33;12.85;;;;;;;;;;4963114;28;20449;-72
2021/07/14 04:49:38;;;;;;;15.57;12.43;;;;;;;;;;4964730;28;20289;-73
2021/07/14 04:52:04;;;;;;;15.90;11.47;;;;;;;;;;4968366;28;20215;-73
2021/07/14 04:54:29;;;;;;;15.77;11.85;;;;;;;;;;4970649;28;20480;-73
2021/07/14 04:56:54;;;;;;;16.10;12.05;;;;;;;;;;4971219;28;20247;-73
2021/07/14 04:59:19;;;;;;;14.15;11.82;;;;;;;;;;4973893;28;20239;-73
2021/07/14 05:01:46;;;;;;;14.70;12.23;;;;;;;;;;4974239;28;20571;-73
2021/07/14 05:04:12;;;;;;;13.40;11.25;;;;;;;;;;4972011;28;20867;-73
2021/07/14 05:06:37;;;;;;;13.48;11.68;;;;;;;;;;4965423;28;20275;-73
2021/07/14 05:09:03;;;;;;;16.23;11.80;;;;;;;;;;4963283;28;20352;-73
2021/07/14 05:11:28;;;;;;;13.10;11.00;;;;;;;;;;4966715;28;20239;-71
2021/07/14 05:13:54;;;;;;;14.83;11.00;;;;;;;;;;4965318;28;20662;-72
2021/07/14 05:16:19;;;;;;;14.07;11.18;;;;;;;;;;4964136;28;20500;-75
2021/07/14 05:18:45;;;;;;;11.50;10.30;;;;;;;;;;4970469;28;20568;-72
2021/07/14 05:21:10;;;;;;;11.88;10.68;;;;;;;;;;4967690;28;20418;-73
2021/07/14 05:23:35;;;;;;;12.57;11.27;;;;;;;;;;4967471;28;20725;-73
2021/07/14 05:26:01;;;;;;;14.17;11.17;;;;;;;;;;4966377;28;20208;-73
2021/07/14 05:28:26;;;;;;;11.50;10.32;;;;;;;;;;4963246;28;20473;-73
2021/07/14 05:30:52;;;;;;;12.52;11.23;;;;;;;;;;4972391;28;20263;-73
2021/07/14 05:33:18;;;;;;;15.00;11.77;;;;;;;;;;4974067;28;20215;-73
2021/07/14 05:35:43;;;;;;;14.57;12.07;;;;;;;;;;4975612;28;20259;-73
2021/07/14 05:38:08;;;;;;;12.23;10.95;;;;;;;;;;4966193;28;20184;-73
2021/07/14 05:40:34;;;;;;;12.68;11.10;;;;;;;;;;4970179;28;20649;-73
2021/07/14 05:42:59;;;;;;;13.32;11.23;;;;;;;;;;4973602;28;20558;-73
2021/07/14 05:45:24;;;;;;;13.65;11.27;;;;;;;;;;4971761;28;20209;-72
2021/07/14 05:47:50;;;;;;;12.75;10.80;;;;;;;;;;4972928;28;20979;-73
2021/07/14 05:50:15;;;;;;;12.90;10.73;;;;;;;;;;4972784;28;20193;-73
2021/07/14 05:52:41;;;;;;;14.85;12.18;;;;;;;;;;4982470;28;20208;-73
2021/07/14 05:55:08;;;;;;;14.18;11.95;;;;;;;;;;4972070;28;20191;-73
2021/07/14 05:57:34;;;;;;;15.27;12.40;;;;;;;;;;4971640;28;20599;-73
2021/07/14 05:59:59;;;;;;;15.83;12.93;;;;;;;;;;4968922;28;20276;-73
2021/07/14 06:02:24;;;;;;;18.33;14.30;;;;;;;;;;4966372;28;20442;-72
2021/07/14 06:04:49;;;;;;;19.80;14.73;;;;;;;;;;4976605;28;20177;-73
2021/07/14 06:07:14;;;;;;;15.77;13.63;;;;;;;;;;4965188;28;20867;-72
2021/07/14 06:09:40;;;;;;;19.90;15.93;;;;;;;;;;4967240;28;20184;-73
2021/07/14 06:12:06;;;;;;;18.80;15.63;;;;;;;;;;4974746;28;20454;-73
2021/07/14 06:14:31;;;;;;;18.23;14.95;;;;;;;;;;4965189;28;20219;-73
2021/07/14 06:16:56;;;;;;;20.83;16.98;;;;;;;;;;4970531;28;20211;-73
2021/07/14 06:19:21;;;;;;;19.85;16.58;;;;;;;;;;4971142;28;20684;-73
2021/07/14 06:21:47;;;;;;;20.70;16.13;;;;;;;;;;4973270;28;20216;-73
2021/07/14 06:24:12;;;;;;;21.80;17.42;;;;;;;;;;4969415;28;20186;-73
2021/07/14 06:26:38;;;;;;;21.10;16.47;;;;;;;;;;4970684;28;20208;-73
2021/07/14 06:29:03;;;;;;;29.08;20.25;;;;;;;;;;4968113;28;20461;-73
2021/07/14 06:31:28;;;;;;;28.48;21.20;;;;;;;;;;4968328;28;20185;-73
2021/07/14 06:33:54;;;;;;;26.50;20.83;;;;;;;;;;4967648;28;20558;-73
2021/07/14 06:36:19;;;;;;;27.02;20.77;;;;;;;;;;4972641;28;20203;-73
2021/07/14 06:38:44;;;;;;;27.80;20.73;;;;;;;;;;4971872;28;20184;-72
2021/07/14 06:41:11;;;;;;;26.23;20.20;;;;;;;;;;4971934;28;20667;-73
2021/07/14 06:43:45;;;;;;;28.90;20.85;;;;;;;;;;4973163;28;20467;-72
2021/07/14 06:46:12;;;;;;;28.83;19.65;;;;;;;;;;4969760;28;20294;-74
2021/07/14 06:48:38;;;;;;;26.08;19.75;;;;;;;;;;4965137;28;20761;-73
2021/07/14 06:51:03;;;;;;;24.52;18.85;;;;;;;;;;4972493;28;20196;-72
2021/07/14 06:53:28;;;;;;;24.67;18.80;;;;;;;;;;4972339;28;20303;-72
2021/07/14 06:55:53;;;;;;;25.42;19.83;;;;;;;;;;4973513;28;20226;-74
2021/07/14 06:58:18;;;;;;;26.25;20.25;;;;;;;;;;4971734;28;20188;-72
2021/07/14 07:00:44;;;;;;;31.13;21.92;;;;;;;;;;4968035;28;20195;-73
2021/07/14 07:03:09;;;;;;;28.80;21.75;;;;;;;;;;4971698;28;20246;-72
2021/07/14 07:05:34;;;;;;;25.98;20.88;;;;;;;;;;4969717;28;20660;-72
2021/07/14 07:07:59;;;;;;;30.73;20.30;;;;;;;;;;4970027;28;20215;-73
2021/07/14 07:10:24;;;;;;;31.33;22.43;;;;;;;;;;4973242;28;20176;-73
2021/07/14 07:12:50;;;;;;;34.95;23.10;;;;;;;;;;4971331;28;20568;-73
2021/07/14 07:15:18;;;;;;;32.93;22.87;;;;;;;;;;4963450;28;20218;-74
2021/07/14 07:17:43;;;;;;;36.05;22.38;;;;;;;;;;4950757;28;20497;-73
2021/07/14 07:20:09;;;;;;;38.33;24.77;;;;;;;;;;4953454;28;20289;-73
2021/07/14 07:22:34;;;;;;;33.63;23.92;;;;;;;;;;4954980;28;20228;-73
2021/07/14 07:25:01;;;;;;;31.97;21.77;;;;;;;;;;4953409;28;20211;-73
2021/07/14 07:27:32;;;;;;;33.65;21.85;;;;;;;;;;4951882;28;20709;-73
2021/07/14 07:29:57;;;;;;;28.33;21.30;;;;;;;;;;4956129;28;20173;-73
2021/07/14 07:32:22;;;;;;;31.80;20.70;;;;;;;;;;4953300;28;20284;-72
2021/07/14 07:34:47;;;;;;;31.77;21.17;;;;;;;;;;4954127;28;20592;-73
2021/07/14 07:37:13;;;;;;;28.80;21.10;;;;;;;;;;4955320;28;20516;-73
2021/07/14 07:39:40;;;;;;;27.67;19.85;;;;;;;;;;4954887;28;20978;-73
2021/07/14 07:42:06;;;;;;;25.67;20.13;;;;;;;;;;4955246;28;20176;-73
2021/07/14 07:44:31;;;;;;;24.58;18.02;;;;;;;;;;4953067;28;20207;-73
2021/07/14 07:46:56;;;;;;;24.70;18.23;;;;;;;;;;4953089;28;20339;-73
2021/07/14 07:49:22;;;;;;;22.38;17.10;;;;;;;;;;4957956;28;20212;-73
2021/07/14 07:51:47;;;;;;;23.58;17.48;;;;;;;;;;4955429;28;20196;-73
2021/07/14 07:54:12;;;;;;;23.25;16.48;;;;;;;;;;4953632;28;20626;-74
2021/07/14 07:56:37;;;;;;;24.50;16.58;;;;;;;;;;4955037;28;20200;-74
2021/07/14 07:59:03;;;;;;;21.33;17.23;;;;;;;;;;4953300;28;20176;-73
2021/07/14 08:01:29;;;;;;;20.58;16.02;;;;;;;;;;4957157;28;20560;-72
2021/07/14 08:03:54;;;;;;;21.85;16.95;;;;;;;;;;4954610;28;20217;-73
2021/07/14 08:06:19;;;;;;;23.90;16.83;;;;;;;;;;4954465;28;20211;-72
2021/07/14 08:08:45;;;;;;;20.95;16.27;;;;;;;;;;4953332;28;20484;-73
2021/07/14 08:11:10;;;;;;;20.47;15.87;;;;;;;;;;4954625;28;20255;-73
2021/07/14 08:13:35;;;;;;;20.97;17.07;;;;;;;;;;4953361;28;20426;-73
2021/07/14 08:16:01;;;;;;;20.88;17.40;;;;;;;;;;4953307;28;21005;-73
2021/07/14 08:18:26;;;;;;;20.63;17.10;;;;;;;;;;4952302;28;20184;-73
2021/07/14 08:20:52;;;;;;;24.27;17.83;;;;;;;;;;4953579;28;20430;-73
2021/07/14 08:23:18;;;;;;;19.70;16.33;;;;;;;;;;4955233;28;20196;-71
2021/07/14 08:25:43;;;;;;;24.05;17.17;;;;;;;;;;4952548;28;20275;-71
2021/07/14 08:28:08;;;;;;;23.67;16.80;;;;;;;;;;4953913;28;20200;-73
2021/07/14 08:30:33;;;;;;;22.70;18.10;;;;;;;;;;4957690;28;20521;-72
2021/07/14 08:32:59;;;;;;;23.70;17.92;;;;;;;;;;4959921;28;20975;-73
2021/07/14 08:35:26;;;;;;;22.93;17.90;;;;;;;;;;4955595;28;20363;-72
2021/07/14 08:37:51;;;;;;;26.63;17.25;;;;;;;;;;4954591;28;20509;-73
2021/07/14 08:40:18;;;;;;;25.87;18.93;;;;;;;;;;4959555;28;20184;-72
2021/07/14 08:42:45;;;;;;;22.33;17.23;;;;;;;;;;4963794;28;20437;-72
2021/07/14 08:45:11;;;;;;;24.55;17.80;;;;;;;;;;4957040;28;20247;-72
2021/07/14 08:47:38;;;;;;;25.27;16.90;;;;;;;;;;4958505;28;20634;-72
2021/07/14 08:50:03;;;;;;;20.42;16.30;;;;;;;;;;4959677;28;20784;-71
2021/07/14 08:52:28;;;;;;;19.95;14.77;;;;;;;;;;4957779;28;20278;-71
2021/07/14 08:54:54;;;;;;;22.50;15.25;;;;;;;;;;4956638;28;20180;-72
2021/07/14 08:57:19;;;;;;;20.63;15.27;;;;;;;;;;4965115;28;20669;-71
2021/07/14 08:59:45;;;;;;;23.90;15.80;;;;;;;;;;4956713;28;20208;-72
2021/07/14 09:02:12;;;;;;;18.80;14.10;;;;;;;;;;4957213;28;20218;-72
2021/07/14 09:04:37;;;;;;;15.20;12.35;;;;;;;;;;4957311;28;20211;-72
2021/07/14 09:07:04;;;;;;;16.83;12.80;;;;;;;;;;4960171;28;20773;-72
2021/07/14 09:09:30;;;;;;;13.93;12.10;;;;;;;;;;4974221;28;20257;-73
2021/07/14 09:11:58;;;;;;;15.10;11.50;;;;;;;;;;4963614;28;20180;-72
2021/07/14 09:14:32;;;;;;;15.40;12.02;;;;;;;;;;4955181;28;20180;-72
2021/07/14 09:16:59;;;;;;;14.88;11.02;;;;;;;;;;4958962;28;20239;-72
2021/07/14 09:19:25;;;;;;;16.58;11.65;;;;;;;;;;4956466;28;20188;-73
2021/07/14 09:21:51;;;;;;;14.35;10.82;;;;;;;;;;4956020;28;20192;-73
2021/07/14 09:24:31;;;;;;;12.32;10.13;;;;;;;;;;4958178;28;20238;-72
2021/07/14 09:26:56;;;;;;;12.15;10.80;;;;;;;;;;4951741;28;20214;-71
2021/07/14 09:29:22;;;;;;;15.15;11.68;;;;;;;;;;4961597;28;20204;-72
2021/07/14 09:31:48;;;;;;;11.68;9.93;;;;;;;;;;4959081;28;20180;-72
2021/07/14 09:34:30;;;;;;;11.43;9.73;;;;;;;;;;4951563;28;20176;-72
2021/07/14 09:36:56;;;;;;;11.25;9.40;;;;;;;;;;4961461;28;20204;-72
2021/07/14 09:39:28;;;;;;;9.50;8.50;;;;;;;;;;4957088;28;20188;-72
2021/07/14 09:41:59;;;;;;;8.45;7.47;;;;;;;;;;4958239;28;20191;-73
2021/07/14 09:44:24;;;;;;;8.75;7.68;;;;;;;;;;4957092;28;20203;-72
2021/07/14 09:47:08;;;;;;;9.18;8.27;;;;;;;;;;4960833;28;20212;-72
2021/07/14 09:49:34;;;;;;;11.50;7.90;;;;;;;;;;4962606;28;20212;-73
2021/07/14 09:52:04;;;;;;;13.70;8.55;;;;;;;;;;4955222;28;21927;-72
2021/07/14 09:54:29;;;;;;;10.77;8.07;;;;;;;;;;4959191;28;20234;-71
2021/07/14 09:56:54;;;;;;;9.18;7.72;;;;;;;;;;4956254;28;20208;-71
2021/07/14 09:59:21;;;;;;;10.83;8.70;;;;;;;;;;4958588;28;20757;-72
2021/07/14 10:01:48;;;;;;;10.27;8.70;;;;;;;;;;4958066;28;20469;-72
2021/07/14 10:04:22;;;;;;;11.27;8.40;;;;;;;;;;4956816;28;20291;-73
2021/07/14 10:06:47;;;;;;;10.90;8.75;;;;;;;;;;4960223;28;20259;-72
2021/07/14 10:09:22;;;;;;;11.65;8.73;;;;;;;;;;4955019;28;20215;-73
2021/07/14 10:11:47;;;;;;;12.18;9.52;;;;;;;;;;4956626;28;20184;-72
2021/07/14 10:14:12;;;;;;;12.93;9.80;;;;;;;;;;4955807;28;20195;-72
2021/07/14 10:16:39;;;;;;;12.20;9.90;;;;;;;;;;4957489;28;21166;-71
2021/07/14 10:19:09;;;;;;;14.02;10.13;;;;;;;;;;4955560;28;20433;-72
2021/07/14 10:21:36;;;;;;;13.73;11.27;;;;;;;;;;4957446;28;20747;-72
2021/07/14 10:24:02;;;;;;;15.93;11.73;;;;;;;;;;4954758;28;20193;-71
2021/07/14 10:26:27;;;;;;;15.63;11.35;;;;;;;;;;4957291;28;20238;-72
2021/07/14 10:28:54;;;;;;;14.63;11.65;;;;;;;;;;4957243;28;20207;-72
2021/07/14 10:31:20;;;;;;;13.93;11.50;;;;;;;;;;4956251;28;20188;-72
2021/07/14 10:33:46;;;;;;;16.85;12.30;;;;;;;;;;4955842;28;20169;-71
2021/07/14 10:36:14;;;;;;;15.73;12.02;;;;;;;;;;4956743;28;20204;-72
2021/07/14 10:38:39;;;;;;;13.18;11.57;;;;;;;;;;4957745;28;20572;-72
2021/07/14 10:41:06;;;;;;;13.70;11.73;;;;;;;;;;4962410;28;20191;-72
2021/07/14 10:43:32;;;;;;;13.60;11.43;;;;;;;;;;4954115;28;20271;-72
2021/07/14 10:45:57;;;;;;;15.32;11.68;;;;;;;;;;4955501;28;21091;-73
2021/07/14 10:48:23;;;;;;;15.05;11.15;;;;;;;;;;4953140;28;20212;-73
2021/07/14 10:50:49;;;;;;;15.02;11.73;;;;;;;;;;4953395;28;20259;-72
2021/07/14 10:53:16;;;;;;;13.93;10.32;;;;;;;;;;4955989;28;21808;-72
2021/07/14 10:55:42;;;;;;;12.23;10.38;;;;;;;;;;4953894;28;20827;-72
2021/07/14 10:58:09;;;;;;;12.35;10.75;;;;;;;;;;4958025;28;20615;-72
2021/07/14 11:00:39;;;;;;;12.95;10.73;;;;;;;;;;4955165;28;20195;-72
2021/07/14 11:03:04;;;;;;;12.93;10.98;;;;;;;;;;4955068;28;20569;-71
2021/07/14 11:05:33;;;;;;;11.60;10.40;;;;;;;;;;4952539;28;20220;-72
2021/07/14 11:07:59;;;;;;;10.95;9.85;;;;;;;;;;4959448;28;20249;-73
2021/07/14 11:10:25;;;;;;;13.68;10.27;;;;;;;;;;4961669;28;20185;-73
2021/07/14 11:12:51;;;;;;;14.52;10.13;;;;;;;;;;4954503;28;20920;-72
2021/07/14 11:15:35;;;;;;;10.73;9.35;;;;;;;;;;4970355;28;20251;-72
2021/07/14 11:18:20;;;;;;;13.10;10.10;;;;;;;;;;4957089;28;20199;-72
2021/07/14 11:20:45;;;;;;;13.10;10.45;;;;;;;;;;4953999;28;20757;-72
2021/07/14 11:23:20;;;;;;;12.03;10.40;;;;;;;;;;4955034;28;20200;-73
2021/07/14 11:25:46;;;;;;;11.10;9.68;;;;;;;;;;4957867;28;20588;-73
2021/07/14 11:28:12;;;;;;;11.32;9.75;;;;;;;;;;4955777;28;20234;-72
2021/07/14 11:30:38;;;;;;;12.20;9.43;;;;;;;;;;4955758;28;20271;-72
2021/07/14 11:33:04;;;;;;;11.88;10.32;;;;;;;;;;4953940;28;20593;-72
2021/07/14 11:35:32;;;;;;;10.80;9.73;;;;;;;;;;4954327;28;20246;-72
2021/07/14 11:38:00;;;;;;;13.55;8.90;;;;;;;;;;4956004;28;20207;-71
2021/07/14 11:40:25;;;;;;;11.32;9.55;;;;;;;;;;4955666;28;20180;-74
2021/07/14 11:42:54;;;;;;;11.43;10.23;;;;;;;;;;4963344;28;20242;-72
2021/07/14 11:45:38;;;;;;;10.00;9.00;;;;;;;;;;4953422;28;20532;-72
2021/07/14 11:48:03;;;;;;;9.98;8.65;;;;;;;;;;4955197;28;20227;-72
2021/07/14 11:50:45;;;;;;;10.03;8.30;;;;;;;;;;4958531;28;20179;-72
2021/07/14 11:53:46;;;;;;;9.95;8.95;;;;;;;;;;4957399;28;20426;-70
2021/07/14 11:56:10;;;;;;;9.43;8.43;;;;;;;;;;4956705;28;20668;-72
2021/07/14 11:58:42;;;;;;;9.15;8.18;;;;;;;;;;4951045;28;20287;-72
2021/07/14 12:01:10;;;;;;;8.15;7.32;;;;;;;;;;4952848;28;20573;-72
2021/07/14 12:03:36;;;;;;;8.73;7.72;;;;;;;;;;4955814;28;20628;-73
2021/07/14 12:06:01;;;;;;;9.33;7.77;;;;;;;;;;4955883;28;21758;-72
2021/07/14 12:08:35;;;;;;;9.65;7.25;;;;;;;;;;4963309;28;20641;-73
2021/07/14 12:11:01;;;;;;;9.10;7.47;;;;;;;;;;4961035;28;20693;-72
2021/07/14 12:13:26;;;;;;;10.23;8.00;;;;;;;;;;4958188;28;20280;-72
2021/07/14 12:15:51;;;;;;;8.73;6.95;;;;;;;;;;4957408;28;22141;-70
2021/07/14 12:18:17;;;;;;;8.77;7.90;;;;;;;;;;4961406;28;20217;-71
2021/07/14 12:20:49;;;;;;;8.60;7.73;;;;;;;;;;4959658;28;20532;-72
2021/07/14 12:23:14;;;;;;;8.45;7.65;;;;;;;;;;4958389;28;20434;-72
2021/07/14 12:25:40;;;;;;;9.10;8.20;;;;;;;;;;4959855;28;20352;-73
2021/07/14 12:28:08;;;;;;;9.82;8.02;;;;;;;;;;4959975;28;21402;-72
2021/07/14 12:30:36;;;;;;;9.13;8.32;;;;;;;;;;4956454;28;20559;-71
2021/07/14 12:33:02;;;;;;;10.90;9.40;;;;;;;;;;4961446;28;20187;-72
2021/07/14 12:35:28;;;;;;;11.50;10.30;;;;;;;;;;4958580;28;20607;-72
2021/07/14 12:37:54;;;;;;;10.30;9.25;;;;;;;;;;4960305;28;20207;-72
2021/07/14 12:40:23;;;;;;;10.57;8.98;;;;;;;;;;4969258;28;20270;-73
2021/07/14 12:42:48;;;;;;;9.48;8.57;;;;;;;;;;4964158;28;20192;-72
2021/07/14 12:45:21;;;;;;;13.65;10.30;;;;;;;;;;4956005;28;20180;-73
2021/07/14 12:47:47;;;;;;;13.25;11.60;;;;;;;;;;4956781;28;20302;-72
2021/07/14 12:50:18;;;;;;;12.40;11.02;;;;;;;;;;4975268;28;20887;-72
2021/07/14 12:52:49;;;;;;;13.10;11.65;;;;;;;;;;4957481;28;20187;-72
2021/07/14 12:55:17;;;;;;;10.60;9.48;;;;;;;;;;4958030;28;20267;-71
2021/07/14 12:57:42;;;;;;;11.88;9.95;;;;;;;;;;4956416;28;20193;-72
2021/07/14 13:00:08;;;;;;;11.63;10.43;;;;;;;;;;4957219;28;20267;-72
2021/07/14 13:02:41;;;;;;;14.00;11.57;;;;;;;;;;4964834;28;20440;-72
2021/07/14 13:05:07;;;;;;;13.20;10.30;;;;;;;;;;4960364;28;20285;-71
2021/07/14 13:07:33;;;;;;;10.70;9.60;;;;;;;;;;4959610;28;20188;-72
2021/07/14 13:09:59;;;;;;;13.10;10.35;;;;;;;;;;4957148;28;20238;-72
2021/07/14 13:12:25;;;;;;;11.73;9.65;;;;;;;;;;4961278;28;20188;-72
2021/07/14 13:14:51;;;;;;;11.48;9.52;;;;;;;;;;4954492;28;20196;-72
2021/07/14 13:17:33;;;;;;;10.65;9.63;;;;;;;;;;4954913;28;20695;-72
2021/07/14 13:19:59;;;;;;;10.85;9.40;;;;;;;;;;4957983;28;21903;-72
2021/07/14 13:22:25;;;;;;;12.10;10.80;;;;;;;;;;4957992;28;20207;-73
2021/07/14 13:24:59;;;;;;;13.80;12.40;;;;;;;;;;4957790;28;20188;-72
2021/07/14 13:27:28;;;;;;;15.45;12.57;;;;;;;;;;4960881;28;20638;-71
2021/07/14 13:29:53;;;;;;;15.18;11.88;;;;;;;;;;4957660;28;20272;-72
2021/07/14 13:32:20;;;;;;;13.67;11.03;;;;;;;;;;4959108;28;20549;-71
2021/07/14 13:34:45;;;;;;;14.23;12.68;;;;;;;;;;4959773;28;20852;-74
2021/07/14 13:37:11;;;;;;;18.20;13.57;;;;;;;;;;4960575;28;20258;-73
2021/07/14 13:39:40;;;;;;;16.25;13.27;;;;;;;;;;4962144;28;20180;-73
2021/07/14 13:42:13;;;;;;;15.63;13.95;;;;;;;;;;4960857;28;20176;-74
2021/07/14 13:44:41;;;;;;;16.75;14.75;;;;;;;;;;4959872;28;20191;-74
2021/07/14 13:47:09;;;;;;;17.52;13.73;;;;;;;;;;4958235;28;20200;-73
2021/07/14 13:49:38;;;;;;;16.45;13.00;;;;;;;;;;4952866;28;20212;-73
2021/07/14 13:52:03;;;;;;;15.63;12.45;;;;;;;;;;4972306;28;20176;-72
2021/07/14 13:54:30;;;;;;;14.73;12.70;;;;;;;;;;4965310;28;20187;-73
2021/07/14 13:56:58;;;;;;;15.05;12.23;;;;;;;;;;4959598;28;20203;-74
2021/07/14 13:59:33;;;;;;;15.68;12.73;;;;;;;;;;4946112;28;20188;-73
2021/07/14 14:02:18;;;;;;;18.20;14.23;;;;;;;;;;4944872;28;20188;-71
2021/07/14 14:04:44;;;;;;;15.88;13.38;;;;;;;;;;4953002;28;20176;-71
2021/07/14 14:07:15;;;;;;;16.92;14.60;;;;;;;;;;4960731;28;20216;-71
2021/07/14 14:09:47;;;;;;;17.48;15.48;;;;;;;;;;4953431;28;20256;-74
2021/07/14 14:12:16;;;;;;;20.08;16.20;;;;;;;;;;4955850;28;20883;-70
2021/07/14 14:14:41;;;;;;;18.27;15.63;;;;;;;;;;4955018;28;20643;-74
2021/07/14 14:17:06;;;;;;;20.90;16.33;;;;;;;;;;4957222;28;20212;-70
2021/07/14 14:19:31;;;;;;;20.53;15.80;;;;;;;;;;4957708;28;20673;-71
2021/07/14 14:21:57;;;;;;;19.07;16.27;;;;;;;;;;4956368;28;20431;-71
2021/07/14 14:24:22;;;;;;;18.10;16.08;;;;;;;;;;4954946;28;20430;-70
2021/07/14 14:26:51;;;;;;;19.13;15.98;;;;;;;;;;4959963;28;20575;-72